Time;durP1;ratioP1;P1;durP2;ratioP2;P2;SDS_P1;SDS_P2;PMS_P1;PMS_P2;Temp;Humidity;BMP_temperature;BMP_pressure;BME280_temperature;BME280_humidity;BME280_pressure;Samples;Min_cycle;Max_cycle;Signal;HPM_P1;HPM_P2
2023/04/14 00:01:49;;;;;;;11.15;4.00;;;8.20;99.90;;;;;;4968646;28;20165;-42
2023/04/14 00:04:15;;;;;;;6.78;2.40;;;;;;;;;;4969818;28;20707;-43
2023/04/14 00:06:41;;;;;;;5.90;2.38;;;8.50;99.90;;;;;;4969917;28;20177;-42
2023/04/14 00:09:07;;;;;;;8.70;2.90;;;8.10;99.90;;;;;;4969711;28;20217;-43
2023/04/14 00:11:33;;;;;;;8.82;2.53;;;;;;;;;;4969884;28;20656;-43
2023/04/14 00:14:01;;;;;;;4.68;2.50;;;8.10;99.90;;;;;;4969867;28;20173;-44
2023/04/14 00:16:29;;;;;;;6.20;2.05;;;8.00;99.90;;;;;;4970196;28;20252;-44
2023/04/14 00:18:54;;;;;;;2.83;1.85;;;7.80;99.90;;;;;;4970069;28;20267;-43
2023/04/14 00:21:20;;;;;;;3.55;2.00;;;7.90;99.90;;;;;;4969717;28;20245;-44
2023/04/14 00:23:46;;;;;;;5.95;2.45;;;;;;;;;;4982135;28;20232;-42
2023/04/14 00:26:11;;;;;;;4.10;1.60;;;7.90;99.90;;;;;;4989487;28;20200;-44
2023/04/14 00:28:37;;;;;;;6.35;1.83;;;7.90;99.90;;;;;;4989082;28;20177;-44
2023/04/14 00:31:02;;;;;;;7.60;2.45;;;7.80;99.90;;;;;;4989138;28;20197;-43
2023/04/14 00:33:28;;;;;;;6.57;2.10;;;7.80;99.90;;;;;;4988995;28;20165;-43
2023/04/14 00:35:53;;;;;;;3.38;1.70;;;7.80;99.90;;;;;;4989068;28;20184;-44
2023/04/14 00:38:19;;;;;;;3.95;2.00;;;7.80;99.90;;;;;;4988902;28;20173;-43
2023/04/14 00:40:45;;;;;;;2.63;1.45;;;;;;;;;;4989316;28;20222;-43
2023/04/14 00:43:10;;;;;;;4.50;1.70;;;7.80;99.90;;;;;;4978610;28;20297;-44
2023/04/14 00:45:44;;;;;;;7.40;2.25;;;7.70;99.90;;;;;;4969500;28;20652;-43
2023/04/14 00:48:10;;;;;;;4.40;1.60;;;7.80;99.90;;;;;;4969773;28;20631;-44
2023/04/14 00:50:36;;;;;;;8.30;1.98;;;7.60;99.90;;;;;;4969448;28;20209;-43
2023/04/14 00:53:02;;;;;;;3.20;1.55;;;7.70;99.90;;;;;;4969470;28;20268;-43
2023/04/14 00:55:29;;;;;;;3.53;1.58;;;7.70;99.90;;;;;;4969648;28;20528;-43
2023/04/14 00:57:55;;;;;;;2.08;1.05;;;7.50;99.90;;;;;;4971700;28;20287;-42
2023/04/14 01:00:20;;;;;;;5.07;2.13;;;7.60;99.90;;;;;;4972882;28;20250;-44
2023/04/14 01:02:46;;;;;;;3.30;1.70;;;;;;;;;;4981745;28;20229;-44
2023/04/14 01:05:12;;;;;;;3.65;1.63;;;7.40;99.90;;;;;;4992389;28;20168;-43
2023/04/14 01:07:38;;;;;;;4.55;1.70;;;7.40;99.90;;;;;;4974683;28;20232;-44
2023/04/14 01:10:05;;;;;;;3.83;1.40;;;7.10;99.90;;;;;;4972311;28;20220;-44
2023/04/14 01:12:38;;;;;;;4.53;1.40;;;7.10;99.90;;;;;;4972282;28;20664;-43
2023/04/14 01:15:09;;;;;;;6.22;1.40;;;7.20;99.90;;;;;;4972364;28;20170;-48
2023/04/14 01:17:41;;;;;;;3.28;1.80;;;7.20;99.90;;;;;;4972629;28;20287;-44
2023/04/14 01:20:10;;;;;;;5.60;1.75;;;7.20;99.90;;;;;;4972308;28;20626;-44
2023/04/14 01:22:43;;;;;;;5.80;1.63;;;7.20;99.90;;;;;;4972446;28;20209;-43
2023/04/14 01:25:21;;;;;;;4.35;2.15;;;7.10;99.90;;;;;;4972521;28;20173;-44
2023/04/14 01:27:58;;;;;;;6.97;2.03;;;7.20;99.90;;;;;;4972221;28;20249;-43
2023/04/14 01:30:24;;;;;;;6.55;2.10;;;7.20;99.90;;;;;;4972159;28;20173;-43
2023/04/14 01:32:55;;;;;;;7.97;2.13;;;7.10;99.90;;;;;;4981782;28;20264;-44
2023/04/14 01:35:43;;;;;;;3.70;1.50;;;7.00;99.90;;;;;;4991396;28;20187;-43
2023/04/14 01:38:17;;;;;;;3.80;1.80;;;7.00;99.90;;;;;;4991470;28;20176;-43
2023/04/14 01:40:49;;;;;;;6.20;1.73;;;7.00;99.90;;;;;;4991901;28;20169;-43
2023/04/14 01:43:16;;;;;;;5.07;1.85;;;7.00;99.90;;;;;;4991572;28;20233;-43
2023/04/14 01:45:47;;;;;;;2.30;1.65;;;7.00;99.90;;;;;;4991687;28;20264;-42
2023/04/14 01:48:14;;;;;;;3.22;1.67;;;7.00;99.90;;;;;;4990019;28;20181;-42
2023/04/14 01:50:42;;;;;;;2.78;1.67;;;7.20;99.90;;;;;;4991957;28;20575;-42
2023/04/14 01:53:10;;;;;;;2.80;1.60;;;7.10;99.90;;;;;;4991285;28;20172;-42
2023/04/14 01:55:37;;;;;;;3.88;2.28;;;7.00;99.90;;;;;;4991416;28;20184;-44
2023/04/14 01:58:05;;;;;;;5.50;1.88;;;7.00;99.90;;;;;;4991173;28;20218;-43
2023/04/14 02:00:33;;;;;;;5.93;2.13;;;7.00;99.90;;;;;;4991444;28;20219;-43
2023/04/14 02:03:00;;;;;;;6.82;2.20;;;7.00;99.90;;;;;;4980292;28;20215;-44
2023/04/14 02:05:26;;;;;;;6.95;2.22;;;6.90;99.90;;;;;;4971655;28;20542;-43
2023/04/14 02:07:53;;;;;;;2.38;1.63;;;6.90;99.90;;;;;;4970725;28;20162;-42
2023/04/14 02:10:20;;;;;;;2.47;1.67;;;6.80;99.90;;;;;;4971410;28;20699;-47
2023/04/14 02:12:47;;;;;;;6.60;2.25;;;7.00;99.90;;;;;;4971696;28;20248;-43
2023/04/14 02:15:16;;;;;;;3.08;1.67;;;6.80;99.90;;;;;;4971922;28;20164;-43
2023/04/14 02:17:43;;;;;;;3.53;1.40;;;;;;;;;;4971538;28;20244;-43
2023/04/14 02:20:11;;;;;;;6.40;2.40;;;6.70;99.90;;;;;;4971815;28;20267;-42
2023/04/14 02:22:37;;;;;;;2.35;2.05;;;6.70;99.90;;;;;;4971415;28;20201;-42
2023/04/14 02:25:04;;;;;;;3.22;2.00;;;6.80;99.90;;;;;;4971665;28;20177;-43
2023/04/14 02:27:36;;;;;;;5.28;1.58;;;6.80;99.90;;;;;;4971735;28;20180;-42
2023/04/14 02:30:10;;;;;;;4.32;1.73;;;6.70;99.90;;;;;;4971343;28;20203;-42
2023/04/14 02:32:39;;;;;;;3.08;1.35;;;6.70;99.90;;;;;;4980813;28;20169;-43
2023/04/14 02:35:13;;;;;;;3.22;1.55;;;6.80;99.90;;;;;;4990770;28;20173;-42
2023/04/14 02:37:43;;;;;;;3.47;1.45;;;6.80;99.90;;;;;;4990761;28;20169;-43
2023/04/14 02:40:15;;;;;;;4.28;1.55;;;;;;;;;;4990565;28;20169;-42
2023/04/14 02:42:46;;;;;;;5.30;1.90;;;6.80;99.90;;;;;;4990949;28;20276;-43
2023/04/14 02:45:17;;;;;;;5.53;1.60;;;6.80;99.90;;;;;;4991117;28;20199;-42
2023/04/14 02:47:46;;;;;;;2.40;1.42;;;6.80;99.90;;;;;;4991024;28;20278;-42
2023/04/14 02:50:15;;;;;;;2.25;1.40;;;6.60;99.90;;;;;;4990888;28;20165;-42
2023/04/14 02:52:43;;;;;;;3.20;1.38;;;6.70;99.90;;;;;;4991040;28;20305;-42
2023/04/14 02:55:10;;;;;;;2.58;1.58;;;6.70;99.90;;;;;;4990258;28;20194;-43
2023/04/14 02:57:36;;;;;;;4.90;1.58;;;6.60;99.90;;;;;;4990557;28;20191;-42
2023/04/14 03:00:02;;;;;;;2.85;1.30;;;6.60;99.90;;;;;;4990341;28;20620;-42
2023/04/14 03:02:29;;;;;;;5.32;1.77;;;6.50;99.90;;;;;;4981376;28;20251;-43
2023/04/14 03:04:55;;;;;;;2.20;1.40;;;6.50;99.90;;;;;;4970669;28;20177;-42
2023/04/14 03:07:21;;;;;;;4.18;2.05;;;6.50;99.90;;;;;;4971057;28;20174;-42
2023/04/14 03:09:51;;;;;;;3.83;1.77;;;6.30;99.90;;;;;;4970872;28;20300;-42
2023/04/14 03:12:18;;;;;;;5.32;1.63;;;6.20;99.90;;;;;;4970738;28;20219;-42
2023/04/14 03:14:44;;;;;;;4.90;1.67;;;;;;;;;;4969803;28;20644;-42
2023/04/14 03:17:13;;;;;;;3.65;1.92;;;6.20;99.90;;;;;;4971007;28;20181;-42
2023/04/14 03:19:40;;;;;;;7.13;1.83;;;6.20;99.90;;;;;;4969037;28;20580;-42
2023/04/14 03:22:09;;;;;;;4.78;1.90;;;6.20;99.90;;;;;;4970850;28;20177;-42
2023/04/14 03:24:36;;;;;;;5.40;1.73;;;6.30;99.90;;;;;;4970426;28;20205;-42
2023/04/14 03:27:06;;;;;;;4.10;2.20;;;;;;;;;;4970430;28;20161;-42
2023/04/14 03:29:36;;;;;;;5.35;1.55;;;6.30;99.90;;;;;;4970490;28;20185;-42
2023/04/14 03:32:05;;;;;;;6.13;2.10;;;6.20;99.90;;;;;;4969865;28;20252;-42
2023/04/14 03:34:33;;;;;;;7.03;1.83;;;6.10;99.90;;;;;;4959184;28;20634;-42
2023/04/14 03:36:59;;;;;;;6.45;2.25;;;6.20;99.90;;;;;;4949845;28;20178;-42
2023/04/14 03:39:27;;;;;;;5.78;2.30;;;6.10;99.90;;;;;;4951062;29;20630;-42
2023/04/14 03:41:58;;;;;;;4.90;2.00;;;6.30;99.90;;;;;;4951173;28;20189;-42
2023/04/14 03:44:26;;;;;;;2.58;1.65;;;6.30;99.90;;;;;;4950991;28;20719;-42
2023/04/14 03:46:53;;;;;;;2.95;1.77;;;6.40;99.90;;;;;;4951243;28;20196;-42
2023/04/14 03:49:20;;;;;;;2.35;1.80;;;6.40;99.90;;;;;;4951005;29;20268;-42
2023/04/14 03:51:48;;;;;;;2.58;1.52;;;6.30;99.90;;;;;;4951315;28;20517;-42
2023/04/14 03:54:15;;;;;;;9.40;1.73;;;6.20;99.90;;;;;;4951210;28;20178;-42
2023/04/14 03:56:44;;;;;;;2.80;1.67;;;6.10;99.90;;;;;;4951485;28;20181;-44
2023/04/14 03:59:12;;;;;;;3.83;1.92;;;6.10;99.90;;;;;;4951057;29;20641;-43
2023/04/14 04:01:40;;;;;;;4.53;2.25;;;6.00;99.90;;;;;;4958367;28;20268;-43
2023/04/14 04:04:06;;;;;;;5.90;2.30;;;6.00;99.90;;;;;;4988917;28;20295;-42
2023/04/14 04:06:36;;;;;;;5.03;2.13;;;5.90;99.90;;;;;;4989225;28;20160;-42
2023/04/14 04:09:03;;;;;;;6.97;2.33;;;6.10;99.90;;;;;;4989285;28;20246;-42
2023/04/14 04:11:31;;;;;;;5.95;1.95;;;6.00;99.90;;;;;;4989229;28;20161;-42
2023/04/14 04:13:58;;;;;;;7.80;2.30;;;6.10;99.90;;;;;;4989143;28;20165;-42
2023/04/14 04:16:27;;;;;;;3.50;2.25;;;6.00;99.90;;;;;;4989289;28;20204;-42
2023/04/14 04:18:53;;;;;;;4.68;2.08;;;;;;;;;;4989378;28;20256;-42
2023/04/14 04:21:20;;;;;;;4.40;2.30;;;6.00;99.90;;;;;;4989194;28;20616;-42
2023/04/14 04:23:50;;;;;;;5.45;2.13;;;6.00;99.90;;;;;;4989036;28;20212;-42
2023/04/14 04:26:18;;;;;;;8.65;2.15;;;6.00;99.90;;;;;;4989376;28;20263;-42
2023/04/14 04:28:44;;;;;;;6.32;2.28;;;6.10;99.90;;;;;;4989735;28;20180;-42
2023/04/14 04:31:10;;;;;;;5.60;2.50;;;6.00;99.90;;;;;;4987209;28;20173;-42
2023/04/14 04:33:37;;;;;;;3.67;2.00;;;5.80;99.90;;;;;;4972929;28;20659;-42
2023/04/14 04:36:05;;;;;;;5.18;2.63;;;5.80;99.90;;;;;;4973273;28;20197;-42
2023/04/14 04:38:31;;;;;;;3.97;2.25;;;5.90;99.90;;;;;;4972958;28;20170;-43
2023/04/14 04:40:56;;;;;;;6.40;2.35;;;6.10;99.90;;;;;;4973019;28;20170;-42
2023/04/14 04:43:22;;;;;;;4.55;2.30;;;6.00;99.90;;;;;;4972790;28;20550;-42
2023/04/14 04:46:36;;;;;;;12.25;4.75;;;6.00;99.90;;;;;;4972852;28;20181;-42
2023/04/14 04:49:01;;;;;;;9.88;3.67;;;6.00;99.90;;;;;;4989540;28;20544;-42
2023/04/14 04:51:27;;;;;;;8.23;3.85;;;5.90;99.90;;;;;;4972697;28;20171;-42
2023/04/14 04:53:53;;;;;;;17.67;5.88;;;6.10;99.90;;;;;;4972674;28;20177;-42
2023/04/14 04:56:20;;;;;;;9.05;4.47;;;5.80;99.90;;;;;;4971822;28;20201;-42
2023/04/14 04:58:45;;;;;;;7.30;3.40;;;6.00;99.90;;;;;;4972942;28;20180;-42
2023/04/14 05:01:11;;;;;;;7.53;3.78;;;6.00;99.90;;;;;;4975051;28;21953;-42
2023/04/14 05:03:37;;;;;;;4.97;3.17;;;6.10;99.90;;;;;;4991287;28;20208;-42
2023/04/14 05:06:03;;;;;;;4.50;2.70;;;6.10;99.90;;;;;;4991811;28;20685;-42
2023/04/14 05:08:29;;;;;;;6.07;3.05;;;6.10;99.90;;;;;;4990050;28;20212;-42
2023/04/14 05:10:55;;;;;;;5.72;2.60;;;;;;;;;;4991715;28;20531;-42
2023/04/14 05:13:24;;;;;;;7.63;2.58;;;6.20;99.90;;;;;;4991362;28;20572;-41
2023/04/14 05:15:49;;;;;;;6.47;2.95;;;6.30;99.90;;;;;;4990846;28;20179;-42
2023/04/14 05:18:15;;;;;;;7.63;2.30;;;6.20;99.90;;;;;;4991511;28;20177;-42
2023/04/14 05:20:40;;;;;;;6.80;2.35;;;6.10;99.90;;;;;;4991647;28;20257;-42
2023/04/14 05:23:06;;;;;;;5.32;2.35;;;;;;;;;;4989570;28;20236;-42
2023/04/14 05:25:32;;;;;;;6.57;2.33;;;5.80;99.90;;;;;;4981744;28;20215;-42
2023/04/14 05:27:57;;;;;;;5.10;2.08;;;6.10;99.90;;;;;;4991244;28;20176;-42
2023/04/14 05:30:23;;;;;;;2.53;1.90;;;;;;;;;;4975619;28;20178;-42
2023/04/14 05:32:49;;;;;;;4.97;2.10;;;6.20;99.90;;;;;;4971373;28;20169;-43
2023/04/14 05:35:15;;;;;;;3.92;2.53;;;6.50;99.90;;;;;;4981088;28;20187;-42
2023/04/14 05:37:41;;;;;;;8.00;2.53;;;;;;;;;;4991505;28;20251;-42
2023/04/14 05:40:08;;;;;;;6.40;2.15;;;6.50;99.90;;;;;;4968890;28;20188;-42
2023/04/14 05:42:34;;;;;;;4.03;1.73;;;;;;;;;;5019419;28;20654;-42
2023/04/14 05:45:00;;;;;;;4.53;1.92;;;;;;;;;;5071941;28;20184;-42
2023/04/14 05:47:26;;;;;;;6.15;2.10;;;6.60;99.90;;;;;;5071930;28;20633;-42
2023/04/14 05:49:52;;;;;;;3.33;1.85;;;;;;;;;;4990500;28;20184;-42
2023/04/14 05:52:17;;;;;;;7.20;2.40;;;;;;;;;;4980863;28;20177;-42
2023/04/14 05:54:44;;;;;;;5.97;3.33;;;;;;;;;;4985407;28;20219;-41
2023/04/14 05:57:10;;;;;;;4.18;2.08;;;;;;;;;;4990036;28;20181;-42
2023/04/14 05:59:35;;;;;;;3.78;1.90;;;7.40;99.90;;;;;;4989564;28;20176;-42
2023/04/14 06:02:05;;;;;;;4.30;2.00;;;7.50;99.90;;;;;;4989197;28;20177;-42
2023/04/14 06:04:30;;;;;;;4.35;2.10;;;7.60;99.90;;;;;;4989301;28;20247;-43
2023/04/14 06:06:57;;;;;;;5.25;2.10;;;;;;;;;;4987860;28;20209;-42
2023/04/14 06:09:23;;;;;;;5.72;2.55;;;;;;;;;;4989175;28;20232;-42
2023/04/14 06:11:49;;;;;;;6.55;2.30;;;;;;;;;;4987888;28;20168;-42
2023/04/14 06:14:15;;;;;;;2.78;1.83;;;;;;;;;;4989053;28;20188;-44
2023/04/14 06:16:41;;;;;;;10.32;2.58;;;7.80;99.90;;;;;;4989486;28;20173;-44
2023/04/14 06:19:06;;;;;;;7.55;2.28;;;7.90;99.90;;;;;;4979598;28;20177;-44
2023/04/14 06:21:32;;;;;;;3.33;1.95;;;7.90;99.90;;;;;;4969593;28;20177;-43
2023/04/14 06:23:57;;;;;;;5.72;2.00;;;8.10;99.90;;;;;;4969534;28;20339;-43
2023/04/14 06:26:24;;;;;;;4.05;2.15;;;8.20;99.90;;;;;;4969872;28;20174;-44
2023/04/14 06:28:50;;;;;;;2.92;1.85;;;8.40;99.90;;;;;;4969398;28;20633;-44
2023/04/14 06:31:16;;;;;;;6.05;2.15;;;;;;;;;;4972284;28;20226;-43
2023/04/14 06:33:42;;;;;;;6.85;2.42;;;8.20;99.90;;;;;;4988425;28;20507;-42
2023/04/14 06:36:08;;;;;;;4.53;2.30;;;8.50;99.90;;;;;;4989268;28;20176;-42
2023/04/14 06:38:33;;;;;;;3.72;2.10;;;8.40;99.90;;;;;;4988712;28;20184;-43
2023/04/14 06:40:59;;;;;;;3.80;2.10;;;8.50;99.90;;;;;;4977661;28;20184;-42
2023/04/14 06:43:24;;;;;;;4.60;1.75;;;8.60;99.90;;;;;;4969149;28;20213;-42
2023/04/14 06:45:50;;;;;;;4.93;2.20;;;;;;;;;;4969233;28;20202;-42
2023/04/14 06:48:16;;;;;;;7.63;2.28;;;8.80;99.90;;;;;;4968817;28;20173;-40
2023/04/14 06:50:41;;;;;;;4.82;2.20;;;9.10;99.90;;;;;;4969539;28;20644;-42
2023/04/14 06:53:08;;;;;;;8.85;2.40;;;;;;;;;;4969139;28;20256;-39
2023/04/14 06:55:40;;;;;;;4.05;1.80;;;9.40;99.90;;;;;;4968626;28;20169;-40
2023/04/14 06:58:05;;;;;;;4.65;2.03;;;9.50;99.90;;;;;;4968967;28;20219;-39
2023/04/14 07:00:31;;;;;;;6.45;2.35;;;;;;;;;;4968963;28;20173;-40
2023/04/14 07:02:57;;;;;;;7.80;2.08;;;;;;;;;;4967983;28;20198;-39
2023/04/14 07:05:23;;;;;;;7.18;2.15;;;;;;;;;;4968710;28;20637;-40
2023/04/14 07:07:49;;;;;;;7.10;2.05;;;9.80;99.90;;;;;;4969441;28;20173;-39
2023/04/14 07:10:15;;;;;;;11.48;2.53;;;9.80;99.90;;;;;;4988622;28;20216;-39
2023/04/14 07:12:40;;;;;;;8.02;2.42;;;9.90;99.90;;;;;;4988573;28;20579;-42
2023/04/14 07:15:07;;;;;;;4.97;2.35;;;9.80;99.90;;;;;;4988190;28;20169;-42
2023/04/14 07:17:35;;;;;;;10.18;2.85;;;10.00;99.90;;;;;;4988206;28;20191;-42
2023/04/14 07:20:02;;;;;;;4.07;2.33;;;10.20;99.90;;;;;;4988284;28;20161;-42
2023/04/14 07:22:28;;;;;;;4.05;2.25;;;10.40;99.90;;;;;;4988353;28;20181;-42
2023/04/14 07:24:54;;;;;;;6.30;2.58;;;;;;;;;;4988139;28;20578;-42
2023/04/14 07:27:19;;;;;;;6.18;2.25;;;10.20;99.90;;;;;;4988265;28;20194;-43
2023/04/14 07:29:45;;;;;;;6.05;2.20;;;;;;;;;;4969619;28;20540;-42
2023/04/14 07:32:12;;;;;;;7.10;2.33;;;10.60;99.90;;;;;;4969411;28;20165;-42
2023/04/14 07:34:40;;;;;;;6.55;1.73;;;10.60;99.90;;;;;;4968446;28;20629;-42
2023/04/14 07:37:06;;;;;;;4.32;2.00;;;;;;;;;;4973489;28;20263;-42
2023/04/14 07:39:32;;;;;;;11.43;2.30;;;;;;;;;;4987913;28;20346;-42
2023/04/14 07:41:57;;;;;;;7.07;2.05;;;11.00;99.90;;;;;;4988107;28;20173;-42
2023/04/14 07:44:23;;;;;;;4.43;2.15;;;11.00;99.90;;;;;;4987643;28;20568;-42
2023/04/14 07:46:49;;;;;;;6.07;2.20;;;;;;;;;;4987928;28;20196;-42
2023/04/14 07:49:15;;;;;;;5.63;2.13;;;;;;;;;;4971192;28;20196;-42
2023/04/14 07:51:41;;;;;;;7.15;2.05;;;;;;;;;;4969042;28;20185;-42
2023/04/14 07:54:07;;;;;;;5.57;2.15;;;11.30;99.90;;;;;;4968271;28;20516;-42
2023/04/14 07:56:32;;;;;;;8.57;2.05;;;11.40;99.90;;;;;;4968347;28;20547;-42
2023/04/14 07:58:58;;;;;;;6.55;1.90;;;11.50;99.90;;;;;;4968209;28;20648;-42
2023/04/14 08:01:24;;;;;;;4.82;2.03;;;;;;;;;;4968175;28;20174;-43
2023/04/14 08:03:49;;;;;;;5.20;2.03;;;11.60;99.90;;;;;;4968513;28;20215;-42
2023/04/14 08:06:15;;;;;;;4.97;2.08;;;;;;;;;;4968603;28;20177;-42
2023/04/14 08:08:42;;;;;;;6.35;2.00;;;11.60;99.90;;;;;;4972506;28;20253;-42
2023/04/14 08:11:07;;;;;;;9.57;2.38;;;11.80;99.90;;;;;;4971775;28;20172;-42
2023/04/14 08:13:33;;;;;;;6.50;2.50;;;;;;;;;;4971711;28;20173;-42
2023/04/14 08:15:59;;;;;;;5.45;2.33;;;11.90;99.90;;;;;;4971643;28;20169;-45
2023/04/14 08:18:25;;;;;;;5.95;2.90;;;12.10;99.90;;;;;;4971641;28;20536;-45
2023/04/14 08:20:51;;;;;;;7.22;3.10;;;;;;;;;;4971692;28;20240;-44
2023/04/14 08:23:16;;;;;;;10.88;3.90;;;12.30;99.90;;;;;;4971279;28;20209;-44
2023/04/14 08:25:43;;;;;;;5.50;2.40;;;;;;;;;;4971816;28;20565;-44
2023/04/14 08:28:08;;;;;;;9.43;2.90;;;12.40;99.90;;;;;;4983682;28;20177;-43
2023/04/14 08:30:34;;;;;;;5.97;2.35;;;12.40;99.90;;;;;;4990685;28;20537;-44
2023/04/14 08:33:00;;;;;;;6.85;2.10;;;12.40;99.90;;;;;;4990707;28;20233;-44
2023/04/14 08:35:25;;;;;;;3.78;2.05;;;12.50;99.90;;;;;;4990790;28;20165;-44
2023/04/14 08:37:51;;;;;;;7.05;2.67;;;;;;;;;;4990488;28;20175;-44
2023/04/14 08:40:18;;;;;;;6.00;2.28;;;;;;;;;;4990735;28;20175;-43
2023/04/14 08:42:47;;;;;;;7.78;2.75;;;12.70;99.90;;;;;;4990662;28;20165;-44
2023/04/14 08:45:13;;;;;;;11.82;3.60;;;;;;;;;;4990507;28;20185;-42
2023/04/14 08:47:41;;;;;;;14.05;4.75;;;12.70;99.90;;;;;;4981009;28;20173;-45
2023/04/14 08:50:15;;;;;;;8.45;3.00;;;12.90;99.90;;;;;;4970901;28;20248;-44
2023/04/14 08:52:42;;;;;;;9.25;3.42;;;13.30;99.90;;;;;;4970119;28;20657;-45
2023/04/14 08:55:09;;;;;;;7.50;2.53;;;13.10;99.90;;;;;;4971308;28;20177;-44
2023/04/14 08:57:37;;;;;;;5.55;2.30;;;13.20;99.90;;;;;;4971103;28;20173;-45
2023/04/14 09:00:03;;;;;;;4.57;1.80;;;;;;;;;;4970864;28;20173;-44
2023/04/14 09:02:33;;;;;;;9.73;2.60;;;13.40;99.90;;;;;;4970926;28;20158;-44
2023/04/14 09:04:58;;;;;;;7.10;3.15;;;12.20;99.90;;;;;;4970797;28;20181;-43
2023/04/14 09:07:25;;;;;;;8.05;2.92;;;;;;;;;;4976057;28;20173;-45
2023/04/14 09:09:51;;;;;;;6.05;2.42;;;;;;;;;;4990009;28;20221;-43
2023/04/14 09:12:16;;;;;;;7.05;2.58;;;13.40;99.90;;;;;;4990217;28;20734;-42
2023/04/14 09:14:44;;;;;;;7.32;2.17;;;13.40;99.90;;;;;;4990498;28;20165;-42
2023/04/14 09:17:10;;;;;;;6.97;3.15;;;13.60;99.90;;;;;;4990116;28;20215;-42
2023/04/14 09:19:36;;;;;;;7.47;2.83;;;13.40;99.90;;;;;;4990039;28;20204;-42
2023/04/14 09:22:02;;;;;;;6.75;2.40;;;13.60;99.90;;;;;;4989954;28;21372;-42
2023/04/14 09:24:28;;;;;;;7.43;2.55;;;13.60;99.90;;;;;;4989864;28;20236;-43
2023/04/14 09:26:54;;;;;;;6.50;2.20;;;13.70;99.90;;;;;;4989883;28;20173;-42
2023/04/14 09:29:20;;;;;;;9.02;2.80;;;13.60;99.90;;;;;;4990017;28;20208;-44
2023/04/14 09:31:46;;;;;;;7.90;3.10;;;14.00;99.90;;;;;;4989688;28;20211;-45
2023/04/14 09:34:18;;;;;;;11.82;3.78;;;14.10;99.90;;;;;;4990052;28;20172;-45
2023/04/14 09:37:01;;;;;;;7.22;3.22;;;14.30;99.90;;;;;;4989678;28;20208;-44
2023/04/14 09:39:30;;;;;;;6.13;3.08;;;14.10;99.90;;;;;;4956818;28;20605;-44
2023/04/14 09:41:55;;;;;;;10.07;3.22;;;14.20;99.90;;;;;;4970340;28;20165;-42
2023/04/14 09:44:21;;;;;;;9.65;2.63;;;14.20;99.90;;;;;;4970036;28;20274;-42
2023/04/14 09:47:00;;;;;;;8.43;3.22;;;14.30;99.90;;;;;;4970418;28;20213;-44
2023/04/14 09:49:28;;;;;;;5.97;2.97;;;14.40;99.90;;;;;;4970366;28;20183;-43
2023/04/14 09:51:54;;;;;;;7.97;2.60;;;;;;;;;;4970261;28;20166;-43
2023/04/14 09:54:26;;;;;;;8.52;2.70;;;14.50;99.90;;;;;;4970131;28;20695;-44
2023/04/14 09:56:53;;;;;;;8.15;2.55;;;14.70;99.90;;;;;;4970114;28;20176;-42
2023/04/14 09:59:36;;;;;;;6.25;2.47;;;14.70;99.90;;;;;;4970165;28;20216;-42
2023/04/14 10:02:06;;;;;;;8.50;3.08;;;14.80;99.90;;;;;;4969937;28;20242;-42
2023/04/14 10:04:32;;;;;;;10.43;2.95;;;14.70;99.90;;;;;;4970238;28;20553;-44
2023/04/14 10:06:58;;;;;;;5.28;2.60;;;15.20;99.90;;;;;;4968944;28;20234;-45
2023/04/14 10:09:26;;;;;;;5.88;2.72;;;15.00;99.90;;;;;;4969732;28;20225;-44
2023/04/14 10:12:07;;;;;;;10.00;2.65;;;14.90;99.90;;;;;;4970230;28;20170;-44
2023/04/14 10:14:33;;;;;;;7.95;2.92;;;15.00;99.90;;;;;;4969980;28;20528;-43
2023/04/14 10:17:01;;;;;;;8.75;2.50;;;;;;;;;;4969719;28;20200;-43
2023/04/14 10:19:27;;;;;;;7.60;2.50;;;14.40;99.90;;;;;;4969626;28;20174;-42
2023/04/14 10:21:53;;;;;;;7.75;3.17;;;14.90;99.90;;;;;;4969839;28;20256;-42
2023/04/14 10:24:20;;;;;;;5.88;2.50;;;15.10;99.90;;;;;;4969475;28;20201;-44
2023/04/14 10:26:48;;;;;;;7.13;2.63;;;15.20;99.90;;;;;;4969762;28;20178;-44
2023/04/14 10:29:15;;;;;;;4.70;2.53;;;15.60;99.90;;;;;;4968510;28;20224;-43
2023/04/14 10:31:45;;;;;;;5.60;2.65;;;15.80;99.90;;;;;;4969710;28;20652;-44
2023/04/14 10:34:13;;;;;;;6.88;2.47;;;15.70;99.90;;;;;;4969747;28;20605;-44
2023/04/14 10:36:39;;;;;;;7.63;2.75;;;15.20;99.90;;;;;;4969599;28;20166;-43
2023/04/14 10:39:06;;;;;;;6.60;2.33;;;15.50;99.90;;;;;;4984349;28;20184;-42
2023/04/14 10:41:45;;;;;;;9.60;2.85;;;15.70;99.90;;;;;;4969357;28;20636;-42
2023/04/14 10:44:27;;;;;;;8.32;2.22;;;15.00;99.50;;;;;;4969716;28;20216;-41
2023/04/14 10:46:55;;;;;;;7.95;2.60;;;14.70;99.90;;;;;;4969588;28;20177;-41
2023/04/14 10:49:35;;;;;;;6.88;2.50;;;;;;;;;;4969037;28;20722;-42
2023/04/14 10:52:02;;;;;;;4.78;2.13;;;15.60;99.90;;;;;;4969347;28;20184;-42
2023/04/14 10:54:52;;;;;;;3.55;1.98;;;15.60;99.30;;;;;;4969118;28;20605;-42
2023/04/14 10:57:21;;;;;;;4.47;2.08;;;15.80;97.60;;;;;;4969057;28;20211;-42
2023/04/14 10:59:47;;;;;;;7.15;2.33;;;15.60;97.10;;;;;;4969352;28;20514;-42
2023/04/14 11:02:30;;;;;;;5.25;2.10;;;15.60;96.00;;;;;;4969129;28;20162;-41
2023/04/14 11:04:57;;;;;;;5.78;2.20;;;15.40;98.10;;;;;;4968818;28;20270;-41
2023/04/14 11:07:23;;;;;;;3.92;1.92;;;;;;;;;;4969530;28;20637;-42
2023/04/14 11:09:49;;;;;;;4.63;1.73;;;16.00;96.70;;;;;;4968684;28;20225;-41
2023/04/14 11:12:22;;;;;;;4.00;1.73;;;16.10;93.90;;;;;;4969001;28;20264;-42
2023/04/14 11:14:48;;;;;;;6.07;1.90;;;15.70;92.40;;;;;;4968868;28;20162;-42
2023/04/14 11:17:19;;;;;;;4.93;1.88;;;;;;;;;;4968750;28;20231;-41
2023/04/14 11:19:45;;;;;;;6.05;3.13;;;;;;;;;;4968830;28;20197;-41
2023/04/14 11:22:11;;;;;;;5.22;2.20;;;;;;;;;;4968993;28;20177;-41
2023/04/14 11:24:38;;;;;;;3.88;2.08;;;16.30;92.30;;;;;;4969316;28;20266;-41
2023/04/14 11:27:04;;;;;;;6.93;2.38;;;16.60;93.60;;;;;;4967418;28;20169;-42
2023/04/14 11:29:30;;;;;;;2.85;1.60;;;16.60;90.50;;;;;;4968593;28;20176;-41
2023/04/14 11:32:05;;;;;;;5.57;2.10;;;16.60;89.70;;;;;;4968621;28;20172;-41
2023/04/14 11:34:31;;;;;;;4.60;1.77;;;16.50;91.30;;;;;;4968507;28;20656;-41
2023/04/14 11:37:02;;;;;;;4.57;2.00;;;16.50;91.50;;;;;;4971823;28;20169;-41
2023/04/14 11:39:28;;;;;;;5.75;2.78;;;16.80;92.20;;;;;;4988167;28;20181;-41
2023/04/14 11:41:55;;;;;;;3.25;2.10;;;17.00;91.30;;;;;;4987678;28;20690;-41
2023/04/14 11:44:21;;;;;;;4.68;2.10;;;;;;;;;;4988058;28;20295;-42
2023/04/14 11:46:48;;;;;;;8.18;3.10;;;17.10;92.90;;;;;;4987508;28;20236;-41
2023/04/14 11:49:14;;;;;;;5.18;2.85;;;16.90;91.20;;;;;;4987515;28;20259;-41
2023/04/14 11:51:40;;;;;;;6.35;2.67;;;;;;;;;;4988484;28;20256;-41
2023/04/14 11:54:06;;;;;;;4.90;2.35;;;17.00;91.10;;;;;;4987794;28;20197;-44
2023/04/14 11:56:31;;;;;;;4.38;2.13;;;17.30;91.00;;;;;;4987736;28;20248;-44
2023/04/14 11:59:00;;;;;;;7.68;3.38;;;17.10;90.30;;;;;;4987632;28;20180;-44
2023/04/14 12:01:27;;;;;;;19.30;9.85;;;17.10;89.90;;;;;;4987909;28;20184;-41
2023/04/14 12:03:53;;;;;;;19.77;10.38;;;17.10;90.60;;;;;;4987474;28;20551;-41
2023/04/14 12:06:19;;;;;;;31.27;16.38;;;;;;;;;;4987472;28;20177;-41
2023/04/14 12:08:50;;;;;;;13.00;7.65;;;17.10;88.60;;;;;;4968467;28;20225;-41
2023/04/14 12:11:16;;;;;;;12.48;5.55;;;17.00;88.80;;;;;;4968095;28;20567;-42
2023/04/14 12:13:43;;;;;;;7.53;3.15;;;16.90;86.80;;;;;;4968094;28;20181;-41
2023/04/14 12:16:10;;;;;;;8.63;4.32;;;17.10;89.00;;;;;;4968700;28;20200;-41
2023/04/14 12:18:36;;;;;;;9.23;3.72;;;17.20;89.40;;;;;;4968098;28;20194;-41
2023/04/14 12:21:03;;;;;;;5.65;2.28;;;17.20;87.90;;;;;;4968132;28;20665;-40
2023/04/14 12:23:29;;;;;;;5.60;2.35;;;;;;;;;;4968156;28;20231;-42
2023/04/14 12:25:55;;;;;;;5.00;2.30;;;17.00;85.10;;;;;;4967981;28;20173;-42
2023/04/14 12:28:28;;;;;;;5.53;2.78;;;17.30;85.50;;;;;;4968251;28;20223;-42
2023/04/14 12:31:02;;;;;;;5.60;2.25;;;17.40;85.70;;;;;;4967840;28;20165;-42
2023/04/14 12:33:30;;;;;;;3.30;1.70;;;17.50;81.50;;;;;;4967860;28;20169;-41
2023/04/14 12:36:11;;;;;;;9.57;5.85;;;17.30;80.40;;;;;;4967740;28;20260;-41
2023/04/14 12:38:37;;;;;;;4.47;1.80;;;17.10;81.80;;;;;;4983612;28;20183;-42
2023/04/14 12:41:03;;;;;;;12.32;4.97;;;16.90;82.30;;;;;;4987200;28;20288;-42
2023/04/14 12:43:31;;;;;;;6.20;2.65;;;17.20;81.90;;;;;;4987015;28;20235;-41
2023/04/14 12:45:57;;;;;;;7.13;4.28;;;16.80;80.00;;;;;;4987086;28;20192;-41
2023/04/14 12:48:44;;;;;;;4.50;2.47;;;16.60;80.00;;;;;;4987152;28;20169;-41
2023/04/14 12:51:11;;;;;;;9.65;5.53;;;;;;;;;;4987630;28;20187;-41
2023/04/14 12:53:37;;;;;;;8.30;3.60;;;16.40;82.90;;;;;;4989537;28;20695;-41
2023/04/14 12:56:10;;;;;;;13.02;5.40;;;16.40;82.50;;;;;;4990384;28;20169;-41
2023/04/14 12:58:37;;;;;;;3.88;2.50;;;16.40;83.50;;;;;;4990180;28;20165;-42
2023/04/14 13:01:05;;;;;;;5.00;2.53;;;16.50;82.80;;;;;;4990290;28;20632;-42
2023/04/14 13:03:44;;;;;;;5.97;4.10;;;17.10;82.30;;;;;;4990075;28;20632;-42
2023/04/14 13:06:11;;;;;;;4.53;2.15;;;17.50;79.90;;;;;;4990503;28;20579;-42
2023/04/14 13:08:36;;;;;;;7.07;3.78;;;17.70;76.50;;;;;;4983712;28;20233;-42
2023/04/14 13:11:02;;;;;;;7.22;3.05;;;17.60;76.90;;;;;;4951472;28;20166;-41
2023/04/14 13:13:28;;;;;;;7.75;3.90;;;;;;;;;;4951462;28;20192;-41